Time;durP1;ratioP1;P1;durP2;ratioP2;P2;SDS_P1;SDS_P2;PMS_P1;PMS_P2;Temp;Humidity;BMP_temperature;BMP_pressure;BME280_temperature;BME280_humidity;BME280_pressure;Samples;Min_cycle;Max_cycle;Signal;HPM_P1;HPM_P2
2022/12/01 00:01:20;;;;;;;38.45;20.65;;;;;;;-1.04;85.85;98290.60;1695371;85;20993;-75
2022/12/01 00:03:47;;;;;;;42.60;19.98;;;;;;;-1.04;85.85;98289.30;1695389;84;21007;-75
2022/12/01 00:06:19;;;;;;;37.13;18.80;;;;;;;-1.02;86.04;98287.63;1694312;84;21016;-74
2022/12/01 00:11:35;;;;;;;37.10;17.32;;;;;;;-1.05;85.64;98283.66;1669100;84;21008;-75
2022/12/01 00:14:03;;;;;;;37.73;17.42;;;;;;;-1.10;85.40;98283.98;1667147;86;21016;-74
2022/12/01 00:16:30;;;;;;;36.23;17.55;;;;;;;-1.16;85.52;98286.45;1668522;85;21024;-74
2022/12/01 00:18:57;;;;;;;45.00;18.65;;;;;;;-1.20;85.73;98287.67;1664592;85;21459;-75
2022/12/01 00:21:26;;;;;;;39.85;18.67;;;;;;;-1.18;85.71;98295.52;1664566;85;21004;-75
2022/12/01 00:23:56;;;;;;;40.15;18.50;;;;;;;-1.18;85.73;98288.13;1665084;86;21001;-75
2022/12/01 00:26:24;;;;;;;50.63;19.37;;;;;;;-1.21;85.66;98294.13;1641497;86;21049;-75
2022/12/01 00:28:56;;;;;;;45.50;20.85;;;;;;;-1.23;85.79;98288.92;1665423;86;21029;-75
2022/12/01 00:31:24;;;;;;;47.60;20.85;;;;;;;-1.24;85.88;98283.23;1664655;86;21024;-75
2022/12/01 00:33:52;;;;;;;47.58;22.40;;;;;;;-1.26;85.66;98303.15;1665228;86;21007;-75
2022/12/01 00:36:20;;;;;;;52.88;23.27;;;;;;;-1.26;85.84;98291.45;1664500;86;21401;-75
2022/12/01 00:38:55;;;;;;;48.30;21.85;;;;;;;-1.31;85.67;98282.66;1663955;86;20991;-75
2022/12/01 00:41:25;;;;;;;41.30;20.82;;;;;;;-1.31;86.04;98288.27;1620409;87;21025;-74
2022/12/01 00:43:52;;;;;;;50.33;21.45;;;;;;;-1.27;86.41;98295.30;1680147;84;21000;-75
2022/12/01 00:46:19;;;;;;;44.23;20.92;;;;;;;-1.27;86.35;98294.00;1680095;84;21056;-75
2022/12/01 00:48:46;;;;;;;43.58;20.32;;;;;;;-1.24;86.15;98303.19;1681934;84;20999;-75
2022/12/01 00:51:13;;;;;;;41.10;19.37;;;;;;;-1.26;85.85;98306.16;1682526;84;21053;-75
2022/12/01 00:53:41;;;;;;;40.08;19.73;;;;;;;-1.28;86.19;98300.95;1677350;84;21670;-75
2022/12/01 00:56:08;;;;;;;37.67;19.82;;;;;;;-1.29;86.12;98292.66;1679439;84;21011;-75
2022/12/01 00:58:35;;;;;;;35.28;19.75;;;;;;;-1.26;86.33;98297.95;1692782;83;21023;-75
2022/12/01 01:01:02;;;;;;;37.00;19.57;;;;;;;-1.22;86.30;98298.89;1718071;83;21063;-75
2022/12/01 01:03:31;;;;;;;32.08;19.57;;;;;;;-1.19;86.46;98293.77;1683636;85;21024;-75
2022/12/01 01:06:05;;;;;;;33.75;17.98;;;;;;;-1.21;86.23;98288.94;1687308;85;21008;-75
2022/12/01 01:08:32;;;;;;;34.83;19.10;;;;;;;-1.24;86.10;98288.88;1682740;84;21051;-75
2022/12/01 01:11:00;;;;;;;30.15;17.05;;;;;;;-1.24;86.11;98291.48;1719219;83;21041;-75
2022/12/01 01:13:28;;;;;;;35.83;17.57;;;;;;;-1.28;85.93;98300.95;1707461;83;21012;-75
2022/12/01 01:16:06;;;;;;;37.58;18.07;;;;;;;-1.33;85.91;98294.77;1709537;83;20970;-75
2022/12/01 01:18:35;;;;;;;34.33;16.97;;;;;;;-1.34;86.00;98286.08;1711392;83;21075;-75
2022/12/01 01:21:07;;;;;;;36.42;17.45;;;;;;;-1.40;85.96;98284.64;1708966;83;21437;-74
2022/12/01 01:23:34;;;;;;;34.90;16.75;;;;;;;-1.38;86.10;98292.45;1710239;83;21024;-74
2022/12/01 01:26:05;;;;;;;33.28;15.75;;;;;;;-1.40;86.16;98285.94;1718837;83;21012;-74
2022/12/01 01:28:32;;;;;;;32.90;16.48;;;;;;;-1.39;86.55;98277.70;1720231;83;21673;-74
2022/12/01 01:30:59;;;;;;;36.25;17.52;;;;;;;-1.36;86.53;98272.58;1718021;83;21033;-75
2022/12/01 01:33:26;;;;;;;39.75;18.30;;;;;;;-1.35;86.77;98274.33;1696911;83;21487;-74
2022/12/01 01:35:52;;;;;;;44.40;18.57;;;;;;;-1.35;86.50;98270.43;1669633;84;20969;-75
2022/12/01 01:38:19;;;;;;;38.80;17.45;;;;;;;-1.37;86.31;98265.19;1696532;83;21003;-74
2022/12/01 01:40:46;;;;;;;38.60;17.73;;;;;;;-1.36;86.60;98269.54;1697416;83;21012;-75
2022/12/01 01:43:17;;;;;;;34.25;17.62;;;;;;;-1.34;86.58;98264.38;1675595;84;21001;-74
2022/12/01 01:45:45;;;;;;;38.73;18.25;;;;;;;-1.34;86.52;98265.27;1697436;83;21012;-75
2022/12/01 01:48:14;;;;;;;46.30;20.17;;;;;;;-1.34;86.87;98265.68;1697382;84;21425;-75
2022/12/01 01:50:42;;;;;;;35.38;16.93;;;;;;;-1.31;86.60;98265.76;1697500;83;20969;-74
2022/12/01 01:53:12;;;;;;;42.40;17.77;;;;;;;-1.30;86.65;98262.31;1666187;85;21063;-74
2022/12/01 01:55:39;;;;;;;43.92;18.45;;;;;;;-1.35;86.34;98266.53;1701084;83;20996;-75
2022/12/01 01:58:09;;;;;;;32.58;17.82;;;;;;;-1.38;86.27;98265.15;1697465;83;21083;-75
2022/12/01 02:00:40;;;;;;;36.50;19.32;;;;;;;-1.41;86.40;98265.10;1703519;83;21012;-74
2022/12/01 02:03:10;;;;;;;40.20;18.67;;;;;;;-1.40;86.78;98264.25;1705013;83;21429;-75
2022/12/01 02:05:41;;;;;;;34.88;18.92;;;;;;;-1.36;87.02;98259.14;1705001;83;21004;-75
2022/12/01 02:08:11;;;;;;;36.33;18.45;;;;;;;-1.33;86.89;98261.82;1705028;83;20996;-75
2022/12/01 02:11:27;;;;;;;37.98;18.57;;;;;;;-1.29;87.08;98261.45;1705001;83;21012;-75
2022/12/01 02:14:11;;;;;;;39.45;18.07;;;;;;;-1.24;86.97;98262.87;1705085;83;20988;-74
2022/12/01 02:17:30;;;;;;;37.98;17.50;;;;;;;-1.25;86.78;98258.09;1704830;83;21001;-75
2022/12/01 02:20:28;;;;;;;38.35;17.42;;;;;;;-1.29;86.66;98257.56;1705079;83;21007;-75
2022/12/01 02:23:22;;;;;;;40.08;17.70;;;;;;;-1.31;86.82;98254.06;1704601;83;21051;-75
2022/12/01 02:26:31;;;;;;;30.65;16.77;;;;;;;-1.31;86.60;98247.97;1705215;83;20976;-76
2022/12/01 02:29:42;;;;;;;36.38;15.00;;;;;;;-1.30;86.80;98248.01;1681859;83;21044;-75
2022/12/01 02:32:23;;;;;;;28.23;14.28;;;;;;;-1.34;86.42;98248.37;1704388;83;21007;-77
2022/12/01 02:35:08;;;;;;;27.10;15.08;;;;;;;-1.35;86.69;98257.43;1703719;83;21071;-74
2022/12/01 02:37:55;;;;;;;24.70;13.55;;;;;;;-1.38;86.60;98250.84;1688094;83;22146;-75
2022/12/01 02:40:43;;;;;;;32.20;13.95;;;;;;;-1.39;86.50;98247.39;1704909;83;21031;-74
2022/12/01 02:43:50;;;;;;;27.67;13.32;;;;;;;-1.43;86.37;98246.86;1704835;83;21111;-74
2022/12/01 02:46:44;;;;;;;23.55;12.98;;;;;;;-1.51;86.41;98250.59;1704409;83;21108;-75
2022/12/01 02:49:16;;;;;;;28.38;15.05;;;;;;;-1.56;86.13;98251.31;1704800;83;21446;-75
2022/12/01 02:51:44;;;;;;;29.80;15.30;;;;;;;-1.61;86.60;98259.88;1704544;83;21489;-75
2022/12/01 02:54:14;;;;;;;29.67;14.85;;;;;;;-1.60;86.50;98259.47;1704107;83;21460;-75
2022/12/01 02:56:45;;;;;;;32.28;14.95;;;;;;;-1.58;86.82;98260.81;1704857;83;21039;-76
2022/12/01 02:59:14;;;;;;;31.45;15.65;;;;;;;-1.56;86.85;98259.11;1703731;83;20991;-76
2022/12/01 03:01:51;;;;;;;30.97;15.10;;;;;;;-1.56;86.74;98263.91;1697394;83;21036;-76
2022/12/01 03:04:50;;;;;;;36.20;16.62;;;;;;;-1.56;86.71;98236.61;1666073;85;21009;-75
2022/12/01 03:08:00;;;;;;;31.15;17.07;;;;;;;-1.55;86.84;98260.45;1666034;85;20977;-74
2022/12/01 03:10:57;;;;;;;33.55;17.55;;;;;;;-1.53;86.98;98252.70;1698320;83;21008;-74
2022/12/01 03:13:52;;;;;;;34.45;18.80;;;;;;;-1.52;86.95;98243.64;1697387;83;21028;-74
2022/12/01 03:16:26;;;;;;;35.05;18.50;;;;;;;-1.49;86.92;98251.93;1697794;83;21033;-74
2022/12/01 03:19:01;;;;;;;32.05;19.00;;;;;;;-1.46;86.89;98242.47;1702787;83;21016;-74
2022/12/01 03:21:33;;;;;;;38.98;19.75;;;;;;;-1.46;87.17;98252.88;1696727;83;21040;-74
2022/12/01 03:24:13;;;;;;;34.38;18.32;;;;;;;-1.43;87.03;98243.38;1697324;83;21477;-75
2022/12/01 03:26:45;;;;;;;37.40;18.48;;;;;;;-1.42;87.10;98251.20;1697472;83;21230;-74
2022/12/01 03:29:22;;;;;;;49.15;19.25;;;;;;;-1.38;87.21;98251.74;1697372;83;20976;-74
2022/12/01 03:31:54;;;;;;;37.30;18.12;;;;;;;-1.34;87.04;98250.97;1697599;83;20960;-74
2022/12/01 03:34:35;;;;;;;35.58;17.60;;;;;;;-1.35;86.95;98248.33;1696880;83;21063;-74
2022/12/01 03:37:12;;;;;;;35.43;17.87;;;;;;;-1.34;86.89;98257.88;1666101;85;21004;-75
2022/12/01 03:39:43;;;;;;;40.78;19.17;;;;;;;-1.36;86.83;98255.23;1666124;85;21053;-75
2022/12/01 03:42:15;;;;;;;35.13;17.73;;;;;;;-1.37;86.79;98250.89;1665913;85;21479;-75
2022/12/01 03:44:49;;;;;;;34.83;18.23;;;;;;;-1.37;86.80;98257.83;1666078;85;21020;-75
2022/12/01 03:47:29;;;;;;;35.15;17.37;;;;;;;-1.37;87.10;98253.48;1666033;85;21020;-75
2022/12/01 03:49:59;;;;;;;39.80;18.65;;;;;;;-1.35;86.94;98250.52;1697463;83;21000;-75
2022/12/01 03:52:49;;;;;;;38.40;18.10;;;;;;;-1.37;86.77;98257.39;1697480;83;21023;-74
2022/12/01 03:55:30;;;;;;;33.95;17.55;;;;;;;-1.37;87.10;98252.63;1665452;85;21041;-74
2022/12/01 03:58:22;;;;;;;32.23;16.77;;;;;;;-1.38;86.73;98242.64;1654113;87;21403;-75
2022/12/01 04:00:52;;;;;;;32.15;17.25;;;;;;;-1.37;87.05;98240.93;1647061;86;21037;-75
2022/12/01 04:03:21;;;;;;;31.07;15.13;;;;;;;-1.38;86.86;98241.75;1647092;86;21002;-75
2022/12/01 04:05:50;;;;;;;26.95;15.10;;;;;;;-1.39;86.83;98240.89;1647022;86;20997;-75
2022/12/01 04:08:20;;;;;;;26.95;14.68;;;;;;;-1.41;86.79;98241.70;1647138;86;20982;-75
2022/12/01 04:10:48;;;;;;;25.25;13.50;;;;;;;-1.42;86.82;98240.81;1647153;86;20994;-75
2022/12/01 04:13:24;;;;;;;24.72;13.95;;;;;;;-1.43;86.63;98254.66;1647260;86;20973;-75
2022/12/01 04:15:53;;;;;;;26.20;13.75;;;;;;;-1.47;86.66;98246.33;1647106;86;21076;-75
2022/12/01 04:18:20;;;;;;;24.00;12.82;;;;;;;-1.48;86.76;98249.38;1647197;86;21819;-75
2022/12/01 04:20:49;;;;;;;22.75;12.13;;;;;;;-1.48;86.80;98253.68;1647153;86;20962;-75
2022/12/01 04:26:03;;;;;;;23.40;12.70;;;;;;;-1.46;87.22;98258.48;1647305;86;20977;-75
2022/12/01 04:28:31;;;;;;;26.62;13.83;;;;;;;-1.43;87.02;98254.66;1647173;86;21017;-75
2022/12/01 04:30:58;;;;;;;23.73;12.70;;;;;;;-1.43;87.16;98255.96;1647118;86;20986;-75
2022/12/01 04:33:24;;;;;;;24.50;13.38;;;;;;;-1.42;87.23;98253.81;1646966;86;21024;-74
2022/12/01 04:35:59;;;;;;;24.20;13.40;;;;;;;-1.45;86.92;98251.16;1647202;86;21483;-74
2022/12/01 04:38:27;;;;;;;19.57;12.28;;;;;;;-1.48;87.00;98250.67;1647149;86;20989;-75
2022/12/01 04:40:53;;;;;;;24.80;13.20;;;;;;;-1.44;87.18;98249.42;1647168;86;21451;-74
2022/12/01 04:43:20;;;;;;;23.55;12.40;;;;;;;-1.42;87.01;98246.02;1642393;86;21080;-74
2022/12/01 04:45:46;;;;;;;21.90;11.75;;;;;;;-1.42;87.14;98248.61;1672421;85;20960;-74
2022/12/01 04:48:13;;;;;;;20.57;12.07;;;;;;;-1.41;86.83;98252.10;1666113;85;21077;-74
2022/12/01 04:50:40;;;;;;;26.55;11.65;;;;;;;-1.44;87.00;98240.32;1665973;85;21045;-75
2022/12/01 04:53:07;;;;;;;23.05;12.25;;;;;;;-1.49;86.56;98250.19;1697553;83;21004;-74
2022/12/01 04:55:38;;;;;;;21.77;11.55;;;;;;;-1.51;86.74;98258.39;1668418;85;21000;-74
2022/12/01 04:58:05;;;;;;;22.30;11.80;;;;;;;-1.56;86.76;98259.11;1644973;86;20996;-74
2022/12/01 05:00:32;;;;;;;22.00;12.28;;;;;;;-1.58;86.78;98259.07;1662345;85;21430;-74
2022/12/01 05:03:00;;;;;;;25.10;12.45;;;;;;;-1.58;86.56;98262.11;1689553;85;21009;-74
2022/12/01 05:05:26;;;;;;;20.25;11.30;;;;;;;-1.62;86.64;98260.73;1689481;85;21088;-75
2022/12/01 05:07:55;;;;;;;21.48;11.68;;;;;;;-1.66;86.54;98264.53;1689660;85;20985;-75
2022/12/01 05:10:23;;;;;;;23.87;12.25;;;;;;;-1.64;86.84;98265.03;1689475;85;21016;-75
2022/12/01 05:12:50;;;;;;;23.05;11.30;;;;;;;-1.62;86.83;98266.37;1689441;84;21493;-76
2022/12/01 05:15:17;;;;;;;20.62;11.63;;;;;;;-1.66;86.94;98261.94;1689674;85;21016;-76
2022/12/01 05:17:44;;;;;;;21.60;12.13;;;;;;;-1.65;86.84;98263.27;1689655;85;21020;-75
2022/12/01 05:23:06;;;;;;;24.20;11.80;;;;;;;-1.71;86.53;98267.00;1689627;85;21009;-76
2022/12/01 05:25:36;;;;;;;24.90;11.80;;;;;;;-1.75;86.65;98263.46;1689498;85;21072;-76
2022/12/01 05:28:05;;;;;;;24.45;12.40;;;;;;;-1.75;86.86;98266.06;1689701;85;20980;-76
2022/12/01 05:30:32;;;;;;;23.22;11.40;;;;;;;-1.78;86.78;98268.58;1689541;84;21478;-76
2022/12/01 05:32:59;;;;;;;21.52;12.50;;;;;;;-1.79;86.60;98264.66;1689523;84;21045;-76
2022/12/01 05:35:27;;;;;;;24.65;12.40;;;;;;;-1.82;86.85;98260.69;1689401;85;21060;-77
2022/12/01 05:37:54;;;;;;;24.92;11.88;;;;;;;-1.79;86.86;98262.92;1689719;85;21386;-76
2022/12/01 05:40:22;;;;;;;19.35;11.33;;;;;;;-1.81;86.68;98263.73;1689465;84;21442;-76
2022/12/01 05:42:49;;;;;;;21.07;11.57;;;;;;;-1.86;86.69;98264.49;1684566;84;21000;-76
2022/12/01 05:45:16;;;;;;;24.02;10.72;;;;;;;-1.88;86.53;98259.70;1683780;85;20997;-77
2022/12/01 05:47:44;;;;;;;23.18;11.43;;;;;;;-1.91;86.49;98268.70;1687643;85;21016;-77
2022/12/01 05:50:13;;;;;;;23.15;10.43;;;;;;;-1.94;86.56;98266.05;1689611;84;20996;-77
2022/12/01 05:52:39;;;;;;;18.35;11.35;;;;;;;-1.91;86.80;98265.24;1689675;84;21005;-77
2022/12/01 05:55:07;;;;;;;23.35;11.10;;;;;;;-1.90;86.85;98269.59;1681776;85;21487;-76
2022/12/01 05:57:33;;;;;;;22.37;12.30;;;;;;;-1.92;86.76;98271.25;1689726;85;21060;-76
2022/12/01 06:00:00;;;;;;;22.52;11.57;;;;;;;-1.97;86.57;98278.95;1689951;84;21107;-76
2022/12/01 06:02:26;;;;;;;20.60;11.53;;;;;;;-1.95;86.86;98276.39;1697366;83;21430;-76
2022/12/01 06:04:53;;;;;;;21.37;10.65;;;;;;;-1.96;86.70;98272.05;1666293;85;21037;-76
2022/12/01 06:07:22;;;;;;;19.77;11.00;;;;;;;-1.99;86.70;98275.00;1697407;83;20936;-76
2022/12/01 06:09:48;;;;;;;20.32;11.10;;;;;;;-1.99;86.74;98281.94;1666182;85;21028;-76
2022/12/01 06:12:15;;;;;;;20.97;11.53;;;;;;;-1.99;87.04;98283.23;1697535;83;21014;-76
2022/12/01 06:14:41;;;;;;;22.00;13.10;;;;;;;-1.98;86.86;98262.91;1697367;83;21020;-77
2022/12/01 06:17:10;;;;;;;20.80;11.30;;;;;;;-2.00;86.77;98267.17;1697527;83;21024;-77
2022/12/01 06:19:40;;;;;;;23.12;11.78;;;;;;;-1.98;86.84;98269.41;1666037;85;21143;-77
2022/12/01 06:22:06;;;;;;;21.65;11.25;;;;;;;-1.94;87.07;98273.84;1665984;85;21040;-75
2022/12/01 06:24:33;;;;;;;20.27;12.58;;;;;;;-1.91;87.19;98265.24;1697773;83;20972;-74
2022/12/01 06:26:59;;;;;;;25.90;13.03;;;;;;;-1.89;86.84;98264.84;1697540;83;20991;-76
2022/12/01 06:29:26;;;;;;;24.70;13.32;;;;;;;-1.91;86.77;98266.10;1697545;84;20964;-74
2022/12/01 06:31:55;;;;;;;28.67;14.60;;;;;;;-1.89;87.18;98263.55;1670952;84;21033;-74
2022/12/01 06:34:23;;;;;;;26.62;14.00;;;;;;;-1.83;87.19;98261.09;1697159;83;20937;-74
2022/12/01 06:36:50;;;;;;;28.55;15.05;;;;;;;-1.80;87.20;98268.08;1671680;84;21052;-75
2022/12/01 06:39:17;;;;;;;33.65;15.48;;;;;;;-1.74;87.32;98268.25;1696437;83;21000;-75
2022/12/01 06:41:44;;;;;;;25.05;14.18;;;;;;;-1.74;87.05;98266.52;1695635;83;21708;-74
2022/12/01 06:44:11;;;;;;;29.30;14.80;;;;;;;-1.68;87.27;98262.30;1692734;83;21037;-75
2022/12/01 06:46:37;;;;;;;26.68;14.33;;;;;;;-1.66;87.26;98269.29;1666231;85;21375;-75
2022/12/01 06:49:04;;;;;;;26.65;15.23;;;;;;;-1.59;87.36;98266.42;1666133;85;21097;-75
2022/12/01 06:51:33;;;;;;;27.02;15.88;;;;;;;-1.52;87.39;98264.44;1697193;83;21441;-75
2022/12/01 06:53:59;;;;;;;28.02;14.78;;;;;;;-1.47;87.40;98256.32;1666701;86;21016;-75
2022/12/01 06:56:25;;;;;;;28.77;14.85;;;;;;;-1.43;87.28;98262.87;1645241;86;21073;-75
2022/12/01 06:58:52;;;;;;;29.57;15.00;;;;;;;-1.41;87.37;98262.50;1647156;86;21069;-75
2022/12/01 07:01:21;;;;;;;26.73;14.35;;;;;;;-1.40;87.19;98262.55;1650695;86;21421;-75
2022/12/01 07:03:50;;;;;;;28.35;15.53;;;;;;;-1.34;87.31;98261.78;1654431;86;21013;-74
2022/12/01 07:06:17;;;;;;;27.93;15.13;;;;;;;-1.31;87.39;98263.16;1654160;86;21813;-74
2022/12/01 07:08:46;;;;;;;25.75;15.63;;;;;;;-1.29;87.31;98260.59;1655675;86;21025;-74
2022/12/01 07:11:14;;;;;;;32.45;18.27;;;;;;;-1.24;87.12;98265.48;1655525;86;21469;-74
2022/12/01 07:13:49;;;;;;;29.32;16.67;;;;;;;-1.21;87.26;98256.02;1657666;86;21461;-74
2022/12/01 07:16:15;;;;;;;;;;;;;;;-1.16;87.13;98261.74;1645585;86;21046;-74
2022/12/01 07:18:44;;;;;;;36.68;20.72;;;;;;;-1.13;87.28;98257.48;1660818;86;20371;-74
2022/12/01 07:21:13;;;;;;;37.35;20.60;;;;;;;-1.07;87.42;98260.64;1656148;86;21064;-74
2022/12/01 07:23:41;;;;;;;37.95;21.12;;;;;;;-1.01;87.50;98256.86;1660961;86;21003;-74
2022/12/01 07:26:16;;;;;;;40.52;21.20;;;;;;;-0.97;87.21;98256.49;1660240;86;21060;-74
2022/12/01 07:28:44;;;;;;;37.65;21.97;;;;;;;-0.90;87.38;98257.09;1660545;86;21000;-74
2022/12/01 07:31:14;;;;;;;37.00;20.45;;;;;;;-0.78;87.36;98258.18;1660871;86;21462;-74
2022/12/01 07:33:42;;;;;;;38.45;20.20;;;;;;;-0.71;87.16;98260.08;1658845;86;21011;-74
2022/12/01 07:36:12;;;;;;;39.85;20.57;;;;;;;-0.65;87.02;98253.68;1661719;85;21043;-74
2022/12/01 07:38:40;;;;;;;41.77;18.73;;;;;;;-0.57;86.90;98250.81;1657376;86;21021;-75
2022/12/01 07:41:10;;;;;;;34.58;17.30;;;;;;;-0.51;86.89;98253.08;1663662;86;21043;-76
2022/12/01 07:43:42;;;;;;;40.28;20.52;;;;;;;-0.44;87.00;98245.41;1650935;86;21029;-76
2022/12/01 07:46:16;;;;;;;36.03;19.37;;;;;;;-0.36;86.84;98249.45;1673724;84;21008;-76
2022/12/01 07:48:43;;;;;;;30.12;17.98;;;;;;;-0.31;86.69;98250.41;1676389;84;20996;-76
2022/12/01 07:51:16;;;;;;;34.15;18.37;;;;;;;-0.28;86.53;98261.31;1676295;84;21462;-76
2022/12/01 07:53:45;;;;;;;30.97;18.77;;;;;;;-0.24;86.32;98251.81;1676168;84;21462;-76
2022/12/01 07:56:11;;;;;;;34.73;19.57;;;;;;;-0.21;86.45;98257.95;1676214;84;21525;-76
2022/12/01 07:58:38;;;;;;;38.63;20.48;;;;;;;-0.19;86.34;98254.96;1677044;84;21003;-76
2022/12/01 08:01:15;;;;;;;33.58;19.02;;;;;;;-0.12;86.51;98244.23;1678961;84;21036;-76
2022/12/01 08:03:42;;;;;;;37.42;18.25;;;;;;;-0.08;86.49;98242.10;1654297;85;21084;-76
2022/12/01 08:06:10;;;;;;;37.08;19.02;;;;;;;-0.02;86.46;98238.73;1654344;85;21040;-76
2022/12/01 08:08:40;;;;;;;29.80;17.32;;;;;;;0.05;86.36;98236.70;1654244;85;21041;-76
2022/12/01 08:11:11;;;;;;;38.25;17.42;;;;;;;0.12;86.35;98234.63;1654478;85;21001;-75
2022/12/01 08:13:39;;;;;;;34.98;17.98;;;;;;;0.19;86.20;98229.09;1654415;85;20997;-75
2022/12/01 08:16:08;;;;;;;30.40;17.50;;;;;;;0.28;86.10;98231.40;1654253;85;21032;-76
2022/12/01 08:18:39;;;;;;;33.02;16.90;;;;;;;0.31;85.92;98231.02;1648413;85;21033;-75
2022/12/01 08:21:09;;;;;;;31.40;17.45;;;;;;;0.42;86.31;98222.05;1654157;85;21020;-75
2022/12/01 08:23:36;;;;;;;29.35;16.73;;;;;;;0.49;85.69;98221.69;1654475;85;21035;-76
2022/12/01 08:26:07;;;;;;;33.30;16.80;;;;;;;0.54;85.62;98221.33;1636587;87;21009;-76
2022/12/01 08:28:37;;;;;;;30.08;15.85;;;;;;;0.56;85.02;98223.55;1653653;86;21025;-76
2022/12/01 08:31:16;;;;;;;29.45;16.65;;;;;;;0.63;85.15;98217.55;1641733;86;21075;-76
2022/12/01 08:33:44;;;;;;;31.25;15.38;;;;;;;0.68;85.21;98218.94;1644715;86;21008;-76
2022/12/01 08:36:12;;;;;;;33.95;16.20;;;;;;;0.73;85.13;98221.17;1641023;86;21052;-76
2022/12/01 08:38:39;;;;;;;30.40;16.80;;;;;;;0.80;84.93;98213.01;1641252;86;21020;-76
2022/12/01 08:41:08;;;;;;;30.15;15.70;;;;;;;0.83;84.60;98213.02;1613276;87;21012;-76
2022/12/01 08:43:38;;;;;;;25.23;15.20;;;;;;;0.91;84.63;98207.91;1642695;86;20981;-76
2022/12/01 08:46:06;;;;;;;28.50;16.07;;;;;;;0.97;84.66;98205.81;1643051;86;21100;-76
2022/12/01 08:48:34;;;;;;;28.67;15.15;;;;;;;1.03;84.64;98216.31;1642798;86;21040;-75
2022/12/01 08:51:08;;;;;;;26.12;14.63;;;;;;;1.08;84.54;98210.72;1642906;86;21493;-75
2022/12/01 08:53:40;;;;;;;24.95;15.40;;;;;;;1.16;84.49;98208.23;1642943;86;21047;-75
2022/12/01 08:56:18;;;;;;;26.12;15.43;;;;;;;1.20;84.45;98202.16;1642754;86;21541;-75
2022/12/01 08:58:45;;;;;;;28.83;16.55;;;;;;;1.24;84.13;98206.56;1642957;87;20972;-75
2022/12/01 09:01:15;;;;;;;35.75;16.70;;;;;;;1.32;84.10;98201.42;1646901;85;21446;-75
2022/12/01 09:03:43;;;;;;;31.23;15.95;;;;;;;1.37;84.03;98196.27;1665761;85;21001;-75
2022/12/01 09:06:14;;;;;;;31.23;17.37;;;;;;;1.40;83.75;98189.33;1654296;86;21049;-75
2022/12/01 09:08:41;;;;;;;30.95;16.95;;;;;;;1.49;83.96;98188.54;1647206;86;21040;-75
2022/12/01 09:11:13;;;;;;;28.77;16.65;;;;;;;1.53;83.44;98188.16;1647069;86;21447;-75
2022/12/01 09:13:42;;;;;;;33.55;17.15;;;;;;;1.57;83.81;98192.53;1647008;86;21092;-75
2022/12/01 09:16:15;;;;;;;32.40;17.80;;;;;;;1.65;83.76;98192.19;1647105;86;21033;-75
2022/12/01 09:18:45;;;;;;;;;;;;;;;1.69;83.48;98186.13;1649695;86;21001;-74
2022/12/01 09:21:23;;;;;;;33.40;17.75;;;;;;;1.76;83.51;98185.76;1647121;86;20356;-74
2022/12/01 09:23:50;;;;;;;32.65;18.25;;;;;;;1.84;83.14;98185.83;1646986;86;21430;-74
2022/12/01 09:26:18;;;;;;;35.00;18.42;;;;;;;1.92;83.18;98183.27;1641547;86;21034;-74
2022/12/01 09:28:49;;;;;;;29.48;17.87;;;;;;;2.00;83.15;98178.99;1646530;86;21024;-74
2022/12/01 09:31:17;;;;;;;30.23;18.77;;;;;;;2.08;82.60;98177.29;1647125;86;21041;-75
2022/12/01 09:33:43;;;;;;;29.27;17.10;;;;;;;2.16;82.78;98166.88;1647151;86;21416;-74
2022/12/01 09:36:11;;;;;;;90.35;37.70;;;;;;;2.24;82.65;98168.24;1647304;86;21054;-77
2022/12/01 09:38:38;;;;;;;191.73;69.25;;;;;;;2.33;82.53;98160.45;1648328;86;21040;-76
2022/12/01 09:41:14;;;;;;;227.78;84.77;;;;;;;2.42;82.51;98159.66;1648744;86;21017;-73
2022/12/01 09:43:46;;;;;;;157.57;65.05;;;;;;;2.52;82.20;98153.17;1652695;86;20988;-73
2022/12/01 09:46:18;;;;;;;128.47;53.55;;;;;;;2.61;81.66;98153.19;1661195;85;21013;-75
2022/12/01 09:48:47;;;;;;;92.65;41.40;;;;;;;2.69;81.80;98148.03;1663320;85;21001;-74
2022/12/01 09:51:22;;;;;;;59.85;29.52;;;;;;;2.79;81.86;98140.66;1663393;85;20989;-74
2022/12/01 09:53:50;;;;;;;;;;;;;;;2.88;81.43;98143.31;1666020;85;21024;-74
2022/12/01 09:56:32;;;;;;;38.13;20.02;;;;;;;2.97;81.16;98135.91;1663884;84;20353;-73
2022/12/01 09:59:07;;;;;;;34.67;17.98;;;;;;;3.03;81.03;98135.92;1662099;85;20997;-74
2022/12/01 10:01:37;;;;;;;31.45;18.15;;;;;;;3.12;80.55;98136.83;1666108;84;21032;-69
2022/12/01 10:04:27;;;;;;;29.00;18.40;;;;;;;3.22;80.15;98138.59;1702748;83;21020;-69
2022/12/01 10:07:07;;;;;;;31.42;17.48;;;;;;;3.28;80.19;98134.67;1702478;83;21000;-70
2022/12/01 10:09:58;;;;;;;30.48;17.75;;;;;;;3.38;80.04;98134.27;1700580;83;21087;-69
2022/12/01 10:12:31;;;;;;;26.60;16.37;;;;;;;3.50;79.90;98122.94;1697354;83;21011;-70
2022/12/01 10:15:25;;;;;;;30.00;17.27;;;;;;;3.63;79.88;98131.67;1701497;83;21031;-71
2022/12/01 10:18:19;;;;;;;34.48;19.37;;;;;;;3.75;80.16;98119.44;1701505;83;21019;-71
2022/12/01 10:21:14;;;;;;;26.02;16.90;;;;;;;3.93;79.65;98121.17;1718876;83;20995;-71
2022/12/01 10:24:06;;;;;;;28.02;15.85;;;;;;;4.09;79.34;98122.03;1726929;83;21015;-69
2022/12/01 10:26:56;;;;;;;27.50;16.52;;;;;;;4.23;79.38;98111.50;1731573;83;20996;-69
2022/12/01 10:29:48;;;;;;;28.80;16.87;;;;;;;4.39;78.84;98116.74;1693227;83;21042;-67
2022/12/01 10:32:28;;;;;;;23.52;14.87;;;;;;;4.56;78.64;98112.30;1727815;83;21035;-68
2022/12/01 10:34:54;;;;;;;28.70;15.83;;;;;;;4.95;78.45;98102.08;1731535;83;21038;-69
2022/12/01 10:37:26;;;;;;;25.37;15.05;;;;;;;5.83;78.13;98101.91;1723657;83;20996;-69
2022/12/01 10:39:55;;;;;;;25.08;15.23;;;;;;;6.75;77.31;98102.30;1719885;83;21027;-69
2022/12/01 10:42:41;;;;;;;22.70;14.03;;;;;;;7.65;72.61;98094.43;1726427;83;21454;-69
2022/12/01 10:45:16;;;;;;;20.75;13.28;;;;;;;8.49;72.40;98094.73;1703782;83;21390;-69
2022/12/01 10:48:15;;;;;;;22.50;14.53;;;;;;;9.40;70.42;98093.73;1679036;84;21421;-70
2022/12/01 10:50:52;;;;;;;21.40;14.07;;;;;;;10.15;67.41;98085.29;1716071;83;21015;-68
2022/12/01 10:53:29;;;;;;;19.40;13.55;;;;;;;10.90;63.24;98076.62;1706552;83;20956;-69
2022/12/01 10:56:07;;;;;;;19.60;13.50;;;;;;;11.27;59.98;98070.66;1674454;83;21031;-68
2022/12/01 10:58:45;;;;;;;16.85;12.40;;;;;;;11.77;60.71;98069.96;1707805;83;21039;-69
2022/12/01 11:01:19;;;;;;;17.02;12.88;;;;;;;12.25;58.61;98065.70;1701927;83;21028;-69
2022/12/01 11:04:00;;;;;;;18.55;13.00;;;;;;;12.62;58.96;98060.84;1684482;84;21115;-69
2022/12/01 11:06:30;;;;;;;16.48;11.75;;;;;;;12.85;55.86;98052.48;1677536;84;21073;-68
2022/12/01 11:09:00;;;;;;;16.48;11.70;;;;;;;13.10;55.53;98048.88;1677976;84;21079;-69
2022/12/01 11:11:33;;;;;;;19.75;12.18;;;;;;;13.52;52.05;98044.59;1679528;84;21412;-69
2022/12/01 11:14:19;;;;;;;15.70;10.28;;;;;;;13.66;53.57;98045.82;1676554;84;21047;-69
2022/12/01 11:16:50;;;;;;;14.63;9.93;;;;;;;13.83;51.39;98044.63;1676946;84;21098;-69
2022/12/01 11:19:31;;;;;;;15.15;10.18;;;;;;;13.93;48.79;98037.13;1683719;84;20992;-70
2022/12/01 11:22:04;;;;;;;18.45;9.13;;;;;;;14.22;49.36;98036.34;1675841;85;20945;-71
2022/12/01 11:24:44;;;;;;;13.75;9.38;;;;;;;14.05;50.87;98034.41;1676077;84;21028;-70
2022/12/01 11:27:24;;;;;;;13.93;7.85;;;;;;;13.83;47.45;98039.79;1676069;84;20988;-70
2022/12/01 11:29:55;;;;;;;11.43;7.75;;;;;;;13.03;48.40;98034.94;1677846;84;21047;-70
2022/12/01 11:32:29;;;;;;;14.07;6.37;;;;;;;13.05;49.82;98032.22;1697352;84;21034;-69
2022/12/01 11:35:19;;;;;;;10.60;6.33;;;;;;;13.41;44.84;98022.84;1705414;84;21027;-70
2022/12/01 11:37:56;;;;;;;11.53;6.90;;;;;;;13.72;48.91;98015.81;1704910;84;21006;-70
2022/12/01 11:40:30;;;;;;;11.25;6.35;;;;;;;14.04;42.24;98020.66;1681962;84;21001;-70
2022/12/01 11:43:01;;;;;;;11.35;6.45;;;;;;;14.43;46.63;98014.11;1701248;84;21002;-69
2022/12/01 11:45:39;;;;;;;12.15;6.87;;;;;;;14.74;41.93;98025.58;1681100;84;21038;-70
2022/12/01 11:48:26;;;;;;;15.43;7.95;;;;;;;15.00;43.66;98018.67;1678668;84;21004;-68
2022/12/01 11:51:10;;;;;;;15.72;7.20;;;;;;;14.81;41.08;98018.65;1686121;84;21007;-69
2022/12/01 11:53:42;;;;;;;12.03;6.70;;;;;;;14.76;40.08;98008.20;1689551;84;21062;-70